Redwood City, CA (94065)

8:34 PM PDT on April 29, 2017 (GMT -0700)
Lauriedale | | Change Station

Elev 30 ft 37.53 °N, 122.29 °W | Updated 3 seconds ago

Partly Cloudy
Partly Cloudy
66.2 °F
Feels Like 66.2 °F
N
0.4
Wind Variable Wind from West
Gusts 0.4 mph

Today
High -- | Low -- °F
--% Chance of Precip.
Yesterday
High -- | Low -- °F
Precip. -- in
Pressure 30.08 in
Visibility 10.0 miles
Clouds Few 12000 ft
Dew Point 40.5 °F
Humidity 39%
Rainfall 0.09 in
Snow Depth Not available.
6:15 AM 7:57 PM
Waxing Crescent, 19% visible
METAR KSQL 300250Z 28007KT 10SM FEW120 20/04 A3008
Pressure 30.08 in
Visibility 10.0 miles
Clouds Few 12000 ft
Dew Point 40.5 °F
Humidity 39%
Rainfall 0.09 in
Snow Depth Not available.
6:15 AM 7:57 PM
Waxing Crescent, 19% visible
METAR KSQL 300250Z 28007KT 10SM FEW120 20/04 A3008

Get Severe Weather Alerts

Thanks for signing up!

Be on the lookout for a verification email in your inbox.

You'll start receiving the daily forecast at 8 AM.

×

10-Day Weather Forecast

Almanac

Astronomy

Apr. 29, 2017 Rise Set
Actual Time
Civil Twilight
Nautical Twilight
Astronomical Twilight
Moon
Length of Visible Light
Length of Day
Tomorrow will be .
, % of the Moon is Illuminated

Today's Extremes

State Highs State Lows

Community

WunderPhotos

WunderBlog® & News

Nearby

Air Quality

  Air Quality AQ Index Pollutant
Not available.

Snow Depth

Station Depth Elevation

Earthquake Activity

City Distance Mag. Time & Date
Minimum magnitude displayed is 2.5.

Coastal Water Temperatures

Place Temperature

Stations

Nearby Weather Stations

Station Location Temp. Windchill Dew Point Humidity Wind Precip. Elev Updated Type
                   

Watches & Warnings

There are currently no watches in effect.